sensor_id;sensor_type;location;lat;lon;timestamp;P1;durP1;ratioP1;P2;durP2;ratioP2
36423;SDS011;22458;45.328;9.514;2022-12-18T00:00:41;44.75;;;21.70;;
36423;SDS011;22458;45.328;9.514;2022-12-18T00:03:07;41.72;;;19.95;;
36423;SDS011;22458;45.328;9.514;2022-12-18T00:05:33;40.05;;;20.77;;
36423;SDS011;22458;45.328;9.514;2022-12-18T00:07:58;37.22;;;20.45;;
36423;SDS011;22458;45.328;9.514;2022-12-18T00:10:24;32.78;;;20.55;;
36423;SDS011;22458;45.328;9.514;2022-12-18T00:12:50;39.53;;;20.63;;
36423;SDS011;22458;45.328;9.514;2022-12-18T00:15:15;35.88;;;21.00;;
36423;SDS011;22458;45.328;9.514;2022-12-18T00:17:41;39.90;;;21.45;;
36423;SDS011;22458;45.328;9.514;2022-12-18T00:20:07;42.22;;;24.65;;
36423;SDS011;22458;45.328;9.514;2022-12-18T00:22:33;41.42;;;22.88;;
36423;SDS011;22458;45.328;9.514;2022-12-18T00:24:59;39.88;;;21.17;;
36423;SDS011;22458;45.328;9.514;2022-12-18T00:27:25;37.20;;;21.20;;
36423;SDS011;22458;45.328;9.514;2022-12-18T00:29:51;37.47;;;21.00;;
36423;SDS011;22458;45.328;9.514;2022-12-18T00:32:16;36.17;;;21.67;;
36423;SDS011;22458;45.328;9.514;2022-12-18T00:34:43;42.42;;;20.92;;
36423;SDS011;22458;45.328;9.514;2022-12-18T00:37:08;37.00;;;19.90;;
36423;SDS011;22458;45.328;9.514;2022-12-18T00:39:34;36.10;;;18.95;;
36423;SDS011;22458;45.328;9.514;2022-12-18T00:42:00;34.95;;;20.10;;
36423;SDS011;22458;45.328;9.514;2022-12-18T00:44:44;34.47;;;20.33;;
36423;SDS011;22458;45.328;9.514;2022-12-18T00:47:11;35.25;;;19.25;;
36423;SDS011;22458;45.328;9.514;2022-12-18T00:49:37;29.38;;;19.13;;
36423;SDS011;22458;45.328;9.514;2022-12-18T00:52:02;35.45;;;19.33;;
36423;SDS011;22458;45.328;9.514;2022-12-18T00:54:28;33.28;;;20.35;;
36423;SDS011;22458;45.328;9.514;2022-12-18T00:56:54;33.88;;;19.80;;
36423;SDS011;22458;45.328;9.514;2022-12-18T00:59:20;31.27;;;18.15;;
36423;SDS011;22458;45.328;9.514;2022-12-18T01:01:46;36.58;;;20.95;;
36423;SDS011;22458;45.328;9.514;2022-12-18T01:04:12;35.70;;;19.13;;
36423;SDS011;22458;45.328;9.514;2022-12-18T01:06:38;33.58;;;19.27;;
36423;SDS011;22458;45.328;9.514;2022-12-18T01:09:03;32.85;;;19.65;;
36423;SDS011;22458;45.328;9.514;2022-12-18T01:11:29;33.75;;;20.88;;
36423;SDS011;22458;45.328;9.514;2022-12-18T01:13:55;34.47;;;18.80;;
36423;SDS011;22458;45.328;9.514;2022-12-18T01:16:21;37.65;;;21.40;;
36423;SDS011;22458;45.328;9.514;2022-12-18T01:18:50;35.45;;;19.38;;
36423;SDS011;22458;45.328;9.514;2022-12-18T01:21:18;36.17;;;20.65;;
36423;SDS011;22458;45.328;9.514;2022-12-18T01:23:44;35.30;;;21.33;;
36423;SDS011;22458;45.328;9.514;2022-12-18T01:26:12;38.83;;;22.23;;
36423;SDS011;22458;45.328;9.514;2022-12-18T01:28:40;39.20;;;22.73;;
36423;SDS011;22458;45.328;9.514;2022-12-18T01:31:10;41.95;;;22.52;;
36423;SDS011;22458;45.328;9.514;2022-12-18T01:33:39;39.30;;;23.88;;
36423;SDS011;22458;45.328;9.514;2022-12-18T01:36:05;51.25;;;25.35;;
36423;SDS011;22458;45.328;9.514;2022-12-18T01:38:31;45.05;;;24.38;;
36423;SDS011;22458;45.328;9.514;2022-12-18T01:40:58;46.17;;;25.50;;
36423;SDS011;22458;45.328;9.514;2022-12-18T01:46:48;48.42;;;24.27;;
36423;SDS011;22458;45.328;9.514;2022-12-18T01:49:14;43.03;;;23.60;;
36423;SDS011;22458;45.328;9.514;2022-12-18T01:51:40;39.35;;;24.20;;
36423;SDS011;22458;45.328;9.514;2022-12-18T01:54:06;43.90;;;23.17;;
36423;SDS011;22458;45.328;9.514;2022-12-18T01:56:32;48.17;;;24.17;;
36423;SDS011;22458;45.328;9.514;2022-12-18T01:59:02;42.50;;;23.15;;
36423;SDS011;22458;45.328;9.514;2022-12-18T02:01:29;40.25;;;23.08;;
36423;SDS011;22458;45.328;9.514;2022-12-18T02:06:46;38.55;;;22.23;;
36423;SDS011;22458;45.328;9.514;2022-12-18T02:09:18;41.15;;;22.60;;
36423;SDS011;22458;45.328;9.514;2022-12-18T02:11:56;43.45;;;24.30;;
36423;SDS011;22458;45.328;9.514;2022-12-18T02:17:18;41.05;;;22.85;;
36423;SDS011;22458;45.328;9.514;2022-12-18T02:19:58;40.22;;;22.08;;
36423;SDS011;22458;45.328;9.514;2022-12-18T02:28:17;39.47;;;23.05;;
36423;SDS011;22458;45.328;9.514;2022-12-18T02:30:47;39.15;;;22.45;;
36423;SDS011;22458;45.328;9.514;2022-12-18T02:33:15;38.30;;;21.55;;
36423;SDS011;22458;45.328;9.514;2022-12-18T02:35:44;42.38;;;22.75;;
36423;SDS011;22458;45.328;9.514;2022-12-18T02:38:12;38.67;;;22.48;;
36423;SDS011;22458;45.328;9.514;2022-12-18T02:40:40;40.15;;;21.85;;
36423;SDS011;22458;45.328;9.514;2022-12-18T02:43:09;38.35;;;21.17;;
36423;SDS011;22458;45.328;9.514;2022-12-18T02:45:45;42.90;;;22.03;;
36423;SDS011;22458;45.328;9.514;2022-12-18T02:48:13;37.40;;;20.25;;
36423;SDS011;22458;45.328;9.514;2022-12-18T02:50:49;42.67;;;21.42;;
36423;SDS011;22458;45.328;9.514;2022-12-18T02:53:28;42.17;;;22.77;;
36423;SDS011;22458;45.328;9.514;2022-12-18T03:01:57;41.80;;;22.02;;
36423;SDS011;22458;45.328;9.514;2022-12-18T03:04:38;37.22;;;20.85;;
36423;SDS011;22458;45.328;9.514;2022-12-18T03:07:09;41.38;;;22.15;;
36423;SDS011;22458;45.328;9.514;2022-12-18T03:09:42;38.63;;;20.55;;
36423;SDS011;22458;45.328;9.514;2022-12-18T03:14:49;40.25;;;20.73;;
36423;SDS011;22458;45.328;9.514;2022-12-18T03:17:22;36.60;;;20.50;;
36423;SDS011;22458;45.328;9.514;2022-12-18T03:19:51;36.67;;;21.38;;
36423;SDS011;22458;45.328;9.514;2022-12-18T03:22:19;36.47;;;20.40;;
36423;SDS011;22458;45.328;9.514;2022-12-18T03:24:49;36.42;;;21.00;;
36423;SDS011;22458;45.328;9.514;2022-12-18T03:27:17;34.60;;;19.77;;
36423;SDS011;22458;45.328;9.514;2022-12-18T03:29:46;31.98;;;19.40;;
36423;SDS011;22458;45.328;9.514;2022-12-18T03:32:23;33.28;;;20.08;;
36423;SDS011;22458;45.328;9.514;2022-12-18T03:34:52;34.90;;;18.88;;
36423;SDS011;22458;45.328;9.514;2022-12-18T03:37:23;33.90;;;19.17;;
36423;SDS011;22458;45.328;9.514;2022-12-18T03:39:50;31.52;;;18.33;;
36423;SDS011;22458;45.328;9.514;2022-12-18T03:42:19;35.65;;;19.73;;
36423;SDS011;22458;45.328;9.514;2022-12-18T03:45:09;33.38;;;19.15;;
36423;SDS011;22458;45.328;9.514;2022-12-18T03:56:00;29.10;;;17.65;;
36423;SDS011;22458;45.328;9.514;2022-12-18T03:58:32;36.22;;;18.50;;
36423;SDS011;22458;45.328;9.514;2022-12-18T04:01:30;36.95;;;18.05;;
36423;SDS011;22458;45.328;9.514;2022-12-18T04:03:59;33.20;;;18.08;;
36423;SDS011;22458;45.328;9.514;2022-12-18T04:06:29;32.78;;;18.20;;
36423;SDS011;22458;45.328;9.514;2022-12-18T04:08:57;29.98;;;16.20;;
36423;SDS011;22458;45.328;9.514;2022-12-18T04:11:25;26.70;;;16.48;;
36423;SDS011;22458;45.328;9.514;2022-12-18T04:13:52;33.22;;;18.45;;
36423;SDS011;22458;45.328;9.514;2022-12-18T04:16:22;32.28;;;16.30;;
36423;SDS011;22458;45.328;9.514;2022-12-18T04:18:51;29.95;;;16.73;;
36423;SDS011;22458;45.328;9.514;2022-12-18T04:21:19;29.52;;;16.52;;
36423;SDS011;22458;45.328;9.514;2022-12-18T04:23:47;32.17;;;15.85;;
36423;SDS011;22458;45.328;9.514;2022-12-18T04:26:13;29.60;;;15.63;;
36423;SDS011;22458;45.328;9.514;2022-12-18T04:28:59;30.92;;;16.33;;
36423;SDS011;22458;45.328;9.514;2022-12-18T04:31:25;31.25;;;15.80;;
36423;SDS011;22458;45.328;9.514;2022-12-18T04:33:51;39.50;;;16.60;;
36423;SDS011;22458;45.328;9.514;2022-12-18T04:36:17;34.78;;;16.48;;
36423;SDS011;22458;45.328;9.514;2022-12-18T04:38:44;32.47;;;15.38;;
36423;SDS011;22458;45.328;9.514;2022-12-18T04:43:40;33.38;;;16.15;;
36423;SDS011;22458;45.328;9.514;2022-12-18T04:46:07;37.13;;;16.90;;
36423;SDS011;22458;45.328;9.514;2022-12-18T04:48:34;35.50;;;16.60;;
36423;SDS011;22458;45.328;9.514;2022-12-18T04:51:02;32.33;;;16.30;;
36423;SDS011;22458;45.328;9.514;2022-12-18T04:53:28;30.13;;;15.32;;
36423;SDS011;22458;45.328;9.514;2022-12-18T04:56:07;39.70;;;17.73;;
36423;SDS011;22458;45.328;9.514;2022-12-18T04:58:36;37.75;;;16.85;;
36423;SDS011;22458;45.328;9.514;2022-12-18T05:01:03;39.70;;;16.15;;
36423;SDS011;22458;45.328;9.514;2022-12-18T05:03:29;42.03;;;16.95;;
36423;SDS011;22458;45.328;9.514;2022-12-18T05:05:55;34.63;;;16.45;;
36423;SDS011;22458;45.328;9.514;2022-12-18T05:08:20;35.92;;;17.65;;
36423;SDS011;22458;45.328;9.514;2022-12-18T05:10:46;35.78;;;16.73;;
36423;SDS011;22458;45.328;9.514;2022-12-18T05:13:12;43.72;;;18.95;;
36423;SDS011;22458;45.328;9.514;2022-12-18T05:15:37;37.05;;;17.48;;
36423;SDS011;22458;45.328;9.514;2022-12-18T05:18:04;37.60;;;18.23;;
36423;SDS011;22458;45.328;9.514;2022-12-18T05:20:30;38.83;;;17.48;;
36423;SDS011;22458;45.328;9.514;2022-12-18T05:22:56;36.85;;;17.17;;
36423;SDS011;22458;45.328;9.514;2022-12-18T05:25:22;31.85;;;16.55;;
36423;SDS011;22458;45.328;9.514;2022-12-18T05:27:48;37.22;;;16.40;;
36423;SDS011;22458;45.328;9.514;2022-12-18T05:30:14;29.77;;;17.05;;
36423;SDS011;22458;45.328;9.514;2022-12-18T05:32:40;29.13;;;16.20;;
36423;SDS011;22458;45.328;9.514;2022-12-18T05:35:07;27.33;;;14.95;;
36423;SDS011;22458;45.328;9.514;2022-12-18T05:37:34;28.90;;;15.25;;
36423;SDS011;22458;45.328;9.514;2022-12-18T05:40:00;27.55;;;15.35;;
36423;SDS011;22458;45.328;9.514;2022-12-18T05:42:26;26.55;;;13.88;;
36423;SDS011;22458;45.328;9.514;2022-12-18T05:44:52;27.80;;;15.32;;
36423;SDS011;22458;45.328;9.514;2022-12-18T05:47:18;31.42;;;16.10;;
36423;SDS011;22458;45.328;9.514;2022-12-18T05:49:43;31.15;;;15.43;;
36423;SDS011;22458;45.328;9.514;2022-12-18T05:52:09;29.63;;;15.65;;
36423;SDS011;22458;45.328;9.514;2022-12-18T05:54:35;28.83;;;15.85;;
36423;SDS011;22458;45.328;9.514;2022-12-18T05:57:01;26.23;;;15.82;;
36423;SDS011;22458;45.328;9.514;2022-12-18T05:59:26;34.85;;;16.35;;
36423;SDS011;22458;45.328;9.514;2022-12-18T06:01:52;33.80;;;16.70;;
36423;SDS011;22458;45.328;9.514;2022-12-18T06:04:18;28.30;;;16.30;;
36423;SDS011;22458;45.328;9.514;2022-12-18T06:06:43;30.27;;;17.25;;
36423;SDS011;22458;45.328;9.514;2022-12-18T06:09:09;31.05;;;17.73;;
36423;SDS011;22458;45.328;9.514;2022-12-18T06:11:35;32.97;;;16.83;;
36423;SDS011;22458;45.328;9.514;2022-12-18T06:14:03;29.40;;;16.52;;
36423;SDS011;22458;45.328;9.514;2022-12-18T06:16:30;35.72;;;17.30;;
36423;SDS011;22458;45.328;9.514;2022-12-18T06:18:57;27.50;;;15.70;;
36423;SDS011;22458;45.328;9.514;2022-12-18T06:21:27;29.75;;;15.55;;
36423;SDS011;22458;45.328;9.514;2022-12-18T06:23:53;32.78;;;15.90;;
36423;SDS011;22458;45.328;9.514;2022-12-18T06:26:19;32.72;;;16.80;;
36423;SDS011;22458;45.328;9.514;2022-12-18T06:28:46;32.47;;;16.45;;
36423;SDS011;22458;45.328;9.514;2022-12-18T06:31:12;23.70;;;14.88;;
36423;SDS011;22458;45.328;9.514;2022-12-18T06:33:38;31.02;;;17.52;;
36423;SDS011;22458;45.328;9.514;2022-12-18T06:36:11;27.80;;;15.65;;
36423;SDS011;22458;45.328;9.514;2022-12-18T06:38:39;34.65;;;17.88;;
36423;SDS011;22458;45.328;9.514;2022-12-18T06:41:09;28.23;;;16.17;;
36423;SDS011;22458;45.328;9.514;2022-12-18T06:43:37;30.65;;;16.27;;
36423;SDS011;22458;45.328;9.514;2022-12-18T06:46:03;28.20;;;15.55;;
36423;SDS011;22458;45.328;9.514;2022-12-18T06:48:30;39.03;;;21.50;;
36423;SDS011;22458;45.328;9.514;2022-12-18T06:50:56;34.45;;;18.42;;
36423;SDS011;22458;45.328;9.514;2022-12-18T06:53:22;31.40;;;16.85;;
36423;SDS011;22458;45.328;9.514;2022-12-18T06:55:49;36.92;;;16.33;;
36423;SDS011;22458;45.328;9.514;2022-12-18T06:58:15;32.15;;;15.70;;
36423;SDS011;22458;45.328;9.514;2022-12-18T07:00:41;31.33;;;17.30;;
36423;SDS011;22458;45.328;9.514;2022-12-18T07:03:07;34.78;;;17.38;;
36423;SDS011;22458;45.328;9.514;2022-12-18T07:05:33;29.50;;;16.85;;
36423;SDS011;22458;45.328;9.514;2022-12-18T07:07:59;28.90;;;14.68;;
36423;SDS011;22458;45.328;9.514;2022-12-18T07:10:24;28.75;;;15.13;;
36423;SDS011;22458;45.328;9.514;2022-12-18T07:12:50;31.80;;;16.00;;
36423;SDS011;22458;45.328;9.514;2022-12-18T07:15:16;31.85;;;15.52;;
36423;SDS011;22458;45.328;9.514;2022-12-18T07:17:42;30.90;;;15.32;;
36423;SDS011;22458;45.328;9.514;2022-12-18T07:20:07;25.45;;;14.65;;
36423;SDS011;22458;45.328;9.514;2022-12-18T07:22:34;28.45;;;14.10;;
36423;SDS011;22458;45.328;9.514;2022-12-18T07:24:59;23.35;;;14.45;;
36423;SDS011;22458;45.328;9.514;2022-12-18T07:27:25;27.60;;;15.45;;
36423;SDS011;22458;45.328;9.514;2022-12-18T07:29:51;25.33;;;14.98;;
36423;SDS011;22458;45.328;9.514;2022-12-18T07:32:16;20.25;;;13.00;;
36423;SDS011;22458;45.328;9.514;2022-12-18T07:34:42;21.63;;;13.80;;
36423;SDS011;22458;45.328;9.514;2022-12-18T07:37:08;25.80;;;15.23;;
36423;SDS011;22458;45.328;9.514;2022-12-18T07:39:34;24.52;;;14.70;;
36423;SDS011;22458;45.328;9.514;2022-12-18T07:42:00;24.83;;;15.45;;
36423;SDS011;22458;45.328;9.514;2022-12-18T07:44:44;23.45;;;13.27;;
36423;SDS011;22458;45.328;9.514;2022-12-18T07:47:11;23.88;;;13.27;;
36423;SDS011;22458;45.328;9.514;2022-12-18T07:49:36;20.23;;;13.30;;
36423;SDS011;22458;45.328;9.514;2022-12-18T07:52:02;25.00;;;14.48;;
36423;SDS011;22458;45.328;9.514;2022-12-18T07:54:28;25.25;;;14.35;;
36423;SDS011;22458;45.328;9.514;2022-12-18T07:56:54;24.38;;;14.35;;
36423;SDS011;22458;45.328;9.514;2022-12-18T07:59:20;23.20;;;13.50;;
36423;SDS011;22458;45.328;9.514;2022-12-18T08:01:45;20.55;;;12.68;;
36423;SDS011;22458;45.328;9.514;2022-12-18T08:04:11;21.10;;;12.80;;
36423;SDS011;22458;45.328;9.514;2022-12-18T08:06:37;21.35;;;14.10;;
36423;SDS011;22458;45.328;9.514;2022-12-18T08:09:03;24.10;;;13.50;;
36423;SDS011;22458;45.328;9.514;2022-12-18T08:11:29;21.88;;;12.70;;
36423;SDS011;22458;45.328;9.514;2022-12-18T08:13:55;19.95;;;12.70;;
36423;SDS011;22458;45.328;9.514;2022-12-18T08:16:21;23.40;;;12.77;;
36423;SDS011;22458;45.328;9.514;2022-12-18T08:18:48;21.17;;;13.90;;
36423;SDS011;22458;45.328;9.514;2022-12-18T08:21:15;24.60;;;13.77;;
36423;SDS011;22458;45.328;9.514;2022-12-18T08:23:43;23.92;;;14.52;;
36423;SDS011;22458;45.328;9.514;2022-12-18T08:26:10;25.58;;;13.77;;
36423;SDS011;22458;45.328;9.514;2022-12-18T08:28:36;21.55;;;13.88;;
36423;SDS011;22458;45.328;9.514;2022-12-18T08:31:02;22.38;;;12.77;;
36423;SDS011;22458;45.328;9.514;2022-12-18T08:33:28;23.70;;;13.82;;
36423;SDS011;22458;45.328;9.514;2022-12-18T08:35:54;23.63;;;13.25;;
36423;SDS011;22458;45.328;9.514;2022-12-18T08:38:20;20.55;;;12.57;;
36423;SDS011;22458;45.328;9.514;2022-12-18T08:40:46;24.13;;;13.75;;
36423;SDS011;22458;45.328;9.514;2022-12-18T08:43:11;24.63;;;14.27;;
36423;SDS011;22458;45.328;9.514;2022-12-18T08:45:56;22.65;;;13.85;;
36423;SDS011;22458;45.328;9.514;2022-12-18T08:48:22;23.88;;;13.20;;
36423;SDS011;22458;45.328;9.514;2022-12-18T08:50:54;23.45;;;13.85;;
36423;SDS011;22458;45.328;9.514;2022-12-18T08:53:24;23.60;;;14.77;;
36423;SDS011;22458;45.328;9.514;2022-12-18T08:55:50;24.50;;;13.38;;
36423;SDS011;22458;45.328;9.514;2022-12-18T08:58:16;24.70;;;14.70;;
36423;SDS011;22458;45.328;9.514;2022-12-18T09:00:42;19.98;;;13.65;;
36423;SDS011;22458;45.328;9.514;2022-12-18T09:03:14;23.63;;;14.15;;
36423;SDS011;22458;45.328;9.514;2022-12-18T09:05:42;20.60;;;13.25;;
36423;SDS011;22458;45.328;9.514;2022-12-18T09:08:08;22.23;;;13.43;;
36423;SDS011;22458;45.328;9.514;2022-12-18T09:10:34;19.73;;;11.32;;
36423;SDS011;22458;45.328;9.514;2022-12-18T09:13:05;20.70;;;13.18;;
36423;SDS011;22458;45.328;9.514;2022-12-18T09:15:31;21.88;;;12.75;;
36423;SDS011;22458;45.328;9.514;2022-12-18T09:17:57;20.45;;;12.23;;
36423;SDS011;22458;45.328;9.514;2022-12-18T09:20:22;22.00;;;14.32;;
36423;SDS011;22458;45.328;9.514;2022-12-18T09:22:49;24.42;;;13.98;;
36423;SDS011;22458;45.328;9.514;2022-12-18T09:25:15;22.25;;;14.30;;
36423;SDS011;22458;45.328;9.514;2022-12-18T09:27:41;22.40;;;12.60;;
36423;SDS011;22458;45.328;9.514;2022-12-18T09:30:06;20.20;;;12.65;;
36423;SDS011;22458;45.328;9.514;2022-12-18T09:32:33;20.52;;;12.63;;
36423;SDS011;22458;45.328;9.514;2022-12-18T09:34:58;22.30;;;13.77;;
36423;SDS011;22458;45.328;9.514;2022-12-18T09:37:24;18.13;;;12.35;;
36423;SDS011;22458;45.328;9.514;2022-12-18T09:39:50;20.33;;;12.80;;
36423;SDS011;22458;45.328;9.514;2022-12-18T09:42:20;18.27;;;12.93;;
36423;SDS011;22458;45.328;9.514;2022-12-18T09:44:53;21.30;;;12.82;;
36423;SDS011;22458;45.328;9.514;2022-12-18T09:47:29;23.35;;;13.25;;
36423;SDS011;22458;45.328;9.514;2022-12-18T09:50:01;20.85;;;14.15;;
36423;SDS011;22458;45.328;9.514;2022-12-18T09:52:32;21.02;;;13.20;;
36423;SDS011;22458;45.328;9.514;2022-12-18T09:57:33;20.75;;;13.70;;
36423;SDS011;22458;45.328;9.514;2022-12-18T10:00:15;22.17;;;14.15;;
36423;SDS011;22458;45.328;9.514;2022-12-18T10:02:44;18.75;;;13.38;;
36423;SDS011;22458;45.328;9.514;2022-12-18T10:05:14;19.50;;;13.38;;
36423;SDS011;22458;45.328;9.514;2022-12-18T10:07:50;19.48;;;13.48;;
36423;SDS011;22458;45.328;9.514;2022-12-18T10:13:23;19.27;;;12.20;;
36423;SDS011;22458;45.328;9.514;2022-12-18T10:21:16;18.38;;;12.75;;
36423;SDS011;22458;45.328;9.514;2022-12-18T10:23:53;19.80;;;13.48;;
36423;SDS011;22458;45.328;9.514;2022-12-18T10:26:33;22.85;;;14.15;;
36423;SDS011;22458;45.328;9.514;2022-12-18T10:29:00;21.02;;;13.63;;
36423;SDS011;22458;45.328;9.514;2022-12-18T10:31:26;20.95;;;13.73;;
36423;SDS011;22458;45.328;9.514;2022-12-18T10:33:55;21.70;;;15.45;;
36423;SDS011;22458;45.328;9.514;2022-12-18T10:36:20;17.58;;;13.35;;
36423;SDS011;22458;45.328;9.514;2022-12-18T10:38:48;19.33;;;12.75;;
36423;SDS011;22458;45.328;9.514;2022-12-18T10:41:24;20.00;;;13.57;;
36423;SDS011;22458;45.328;9.514;2022-12-18T10:46:37;20.35;;;13.85;;
36423;SDS011;22458;45.328;9.514;2022-12-18T10:49:04;23.92;;;14.48;;
36423;SDS011;22458;45.328;9.514;2022-12-18T10:51:31;24.08;;;13.80;;
36423;SDS011;22458;45.328;9.514;2022-12-18T10:54:12;20.58;;;13.25;;
36423;SDS011;22458;45.328;9.514;2022-12-18T10:56:44;21.65;;;13.90;;
36423;SDS011;22458;45.328;9.514;2022-12-18T10:59:11;23.27;;;13.75;;
36423;SDS011;22458;45.328;9.514;2022-12-18T11:01:46;21.47;;;14.37;;
36423;SDS011;22458;45.328;9.514;2022-12-18T11:04:19;26.17;;;15.02;;
36423;SDS011;22458;45.328;9.514;2022-12-18T11:07:02;22.17;;;13.43;;
36423;SDS011;22458;45.328;9.514;2022-12-18T11:09:30;24.52;;;15.45;;
36423;SDS011;22458;45.328;9.514;2022-12-18T11:11:58;23.73;;;14.38;;
36423;SDS011;22458;45.328;9.514;2022-12-18T11:14:27;25.70;;;15.48;;
36423;SDS011;22458;45.328;9.514;2022-12-18T11:16:59;21.80;;;14.43;;
36423;SDS011;22458;45.328;9.514;2022-12-18T11:21:51;21.92;;;15.07;;
36423;SDS011;22458;45.328;9.514;2022-12-18T11:24:21;22.05;;;14.70;;
36423;SDS011;22458;45.328;9.514;2022-12-18T11:26:52;23.80;;;15.35;;
36423;SDS011;22458;45.328;9.514;2022-12-18T11:29:22;24.65;;;14.98;;
36423;SDS011;22458;45.328;9.514;2022-12-18T11:31:55;22.92;;;14.95;;
36423;SDS011;22458;45.328;9.514;2022-12-18T11:34:48;26.10;;;14.57;;
36423;SDS011;22458;45.328;9.514;2022-12-18T11:37:18;22.48;;;14.63;;
36423;SDS011;22458;45.328;9.514;2022-12-18T11:39:55;20.05;;;14.02;;
36423;SDS011;22458;45.328;9.514;2022-12-18T11:42:35;20.92;;;13.68;;
36423;SDS011;22458;45.328;9.514;2022-12-18T11:45:28;19.70;;;14.18;;
36423;SDS011;22458;45.328;9.514;2022-12-18T11:48:13;21.05;;;14.13;;
36423;SDS011;22458;45.328;9.514;2022-12-18T11:50:50;22.50;;;14.63;;
36423;SDS011;22458;45.328;9.514;2022-12-18T11:53:21;20.58;;;13.90;;
36423;SDS011;22458;45.328;9.514;2022-12-18T12:11:42;24.73;;;16.10;;
36423;SDS011;22458;45.328;9.514;2022-12-18T12:15:17;24.17;;;16.15;;
36423;SDS011;22458;45.328;9.514;2022-12-18T12:28:52;23.48;;;14.32;;
36423;SDS011;22458;45.328;9.514;2022-12-18T12:39:48;17.23;;;12.57;;
36423;SDS011;22458;45.328;9.514;2022-12-18T12:42:19;20.15;;;14.55;;
36423;SDS011;22458;45.328;9.514;2022-12-18T12:45:14;19.40;;;13.63;;
36423;SDS011;22458;45.328;9.514;2022-12-18T12:47:45;20.60;;;13.77;;
36423;SDS011;22458;45.328;9.514;2022-12-18T12:50:15;20.00;;;13.23;;
36423;SDS011;22458;45.328;9.514;2022-12-18T12:52:47;20.27;;;14.45;;
36423;SDS011;22458;45.328;9.514;2022-12-18T12:55:27;21.13;;;15.02;;
36423;SDS011;22458;45.328;9.514;2022-12-18T13:00:40;20.33;;;14.95;;
36423;SDS011;22458;45.328;9.514;2022-12-18T13:05:58;19.83;;;14.73;;
36423;SDS011;22458;45.328;9.514;2022-12-18T13:08:51;19.23;;;13.52;;
36423;SDS011;22458;45.328;9.514;2022-12-18T13:11:30;16.08;;;12.93;;
36423;SDS011;22458;45.328;9.514;2022-12-18T13:14:28;20.48;;;14.15;;
36423;SDS011;22458;45.328;9.514;2022-12-18T13:20:28;20.45;;;14.10;;
36423;SDS011;22458;45.328;9.514;2022-12-18T13:22:44;21.33;;;15.20;;
36423;SDS011;22458;45.328;9.514;2022-12-18T13:40:59;27.90;;;18.83;;
36423;SDS011;22458;45.328;9.514;2022-12-18T13:43:30;20.45;;;15.80;;
36423;SDS011;22458;45.328;9.514;2022-12-18T13:51:47;21.80;;;15.00;;
36423;SDS011;22458;45.328;9.514;2022-12-18T13:54:19;25.38;;;14.90;;
36423;SDS011;22458;45.328;9.514;2022-12-18T13:56:57;23.25;;;15.25;;
36423;SDS011;22458;45.328;9.514;2022-12-18T14:02:01;23.92;;;16.23;;
36423;SDS011;22458;45.328;9.514;2022-12-18T14:04:38;24.05;;;15.93;;
36423;SDS011;22458;45.328;9.514;2022-12-18T14:09:37;23.20;;;15.80;;
36423;SDS011;22458;45.328;9.514;2022-12-18T14:12:11;24.67;;;15.98;;
36423;SDS011;22458;45.328;9.514;2022-12-18T14:15:04;24.65;;;16.88;;
36423;SDS011;22458;45.328;9.514;2022-12-18T14:17:34;22.02;;;15.07;;
36423;SDS011;22458;45.328;9.514;2022-12-18T14:20:01;31.00;;;18.92;;
36423;SDS011;22458;45.328;9.514;2022-12-18T14:22:28;28.17;;;18.13;;
36423;SDS011;22458;45.328;9.514;2022-12-18T14:27:43;28.35;;;17.60;;
36423;SDS011;22458;45.328;9.514;2022-12-18T14:30:29;27.55;;;16.88;;
36423;SDS011;22458;45.328;9.514;2022-12-18T14:33:38;29.70;;;18.55;;
36423;SDS011;22458;45.328;9.514;2022-12-18T14:35:54;23.55;;;16.25;;
36423;SDS011;22458;45.328;9.514;2022-12-18T14:41:13;22.98;;;16.63;;
36423;SDS011;22458;45.328;9.514;2022-12-18T14:43:45;24.85;;;16.38;;
36423;SDS011;22458;45.328;9.514;2022-12-18T14:48:57;29.08;;;16.63;;
36423;SDS011;22458;45.328;9.514;2022-12-18T14:51:27;25.40;;;17.83;;
36423;SDS011;22458;45.328;9.514;2022-12-18T14:53:56;28.58;;;17.23;;
36423;SDS011;22458;45.328;9.514;2022-12-18T14:56:35;29.92;;;18.55;;
36423;SDS011;22458;45.328;9.514;2022-12-18T14:59:26;32.35;;;19.55;;
36423;SDS011;22458;45.328;9.514;2022-12-18T15:04:34;33.88;;;20.25;;
36423;SDS011;22458;45.328;9.514;2022-12-18T15:09:36;27.73;;;17.73;;
36423;SDS011;22458;45.328;9.514;2022-12-18T15:12:03;27.73;;;17.88;;
36423;SDS011;22458;45.328;9.514;2022-12-18T15:14:31;25.77;;;17.08;;
36423;SDS011;22458;45.328;9.514;2022-12-18T15:17:19;26.73;;;17.35;;
36423;SDS011;22458;45.328;9.514;2022-12-18T15:19:48;24.02;;;15.60;;
36423;SDS011;22458;45.328;9.514;2022-12-18T15:24:45;29.05;;;17.25;;
36423;SDS011;22458;45.328;9.514;2022-12-18T15:32:40;25.42;;;16.02;;
36423;SDS011;22458;45.328;9.514;2022-12-18T15:37:34;27.48;;;16.13;;
36423;SDS011;22458;45.328;9.514;2022-12-18T15:40:00;23.75;;;15.63;;
36423;SDS011;22458;45.328;9.514;2022-12-18T15:42:27;26.27;;;15.63;;
36423;SDS011;22458;45.328;9.514;2022-12-18T15:45:12;28.17;;;16.52;;
36423;SDS011;22458;45.328;9.514;2022-12-18T15:47:39;24.58;;;16.02;;
36423;SDS011;22458;45.328;9.514;2022-12-18T15:50:06;24.50;;;16.42;;
36423;SDS011;22458;45.328;9.514;2022-12-18T15:52:35;25.38;;;16.98;;
36423;SDS011;22458;45.328;9.514;2022-12-18T15:55:11;22.65;;;16.10;;
36423;SDS011;22458;45.328;9.514;2022-12-18T15:57:57;25.98;;;15.07;;
36423;SDS011;22458;45.328;9.514;2022-12-18T16:00:22;26.55;;;15.77;;
36423;SDS011;22458;45.328;9.514;2022-12-18T16:02:48;22.15;;;15.45;;
36423;SDS011;22458;45.328;9.514;2022-12-18T16:05:14;26.05;;;16.42;;
36423;SDS011;22458;45.328;9.514;2022-12-18T16:07:42;27.67;;;16.65;;
36423;SDS011;22458;45.328;9.514;2022-12-18T16:10:08;24.83;;;15.55;;
36423;SDS011;22458;45.328;9.514;2022-12-18T16:12:34;24.23;;;15.55;;
36423;SDS011;22458;45.328;9.514;2022-12-18T16:15:01;27.52;;;16.85;;
36423;SDS011;22458;45.328;9.514;2022-12-18T16:17:27;24.75;;;16.40;;
36423;SDS011;22458;45.328;9.514;2022-12-18T16:19:53;24.45;;;15.45;;
36423;SDS011;22458;45.328;9.514;2022-12-18T16:22:20;27.92;;;16.30;;
36423;SDS011;22458;45.328;9.514;2022-12-18T16:24:51;32.63;;;18.88;;
36423;SDS011;22458;45.328;9.514;2022-12-18T16:27:17;28.38;;;16.88;;
36423;SDS011;22458;45.328;9.514;2022-12-18T16:29:43;26.42;;;17.65;;
36423;SDS011;22458;45.328;9.514;2022-12-18T16:32:13;28.98;;;17.67;;
36423;SDS011;22458;45.328;9.514;2022-12-18T16:34:44;33.28;;;18.30;;
36423;SDS011;22458;45.328;9.514;2022-12-18T16:37:11;37.30;;;20.30;;
36423;SDS011;22458;45.328;9.514;2022-12-18T16:39:38;25.42;;;16.50;;
36423;SDS011;22458;45.328;9.514;2022-12-18T16:42:06;24.92;;;16.45;;
36423;SDS011;22458;45.328;9.514;2022-12-18T16:44:41;28.27;;;17.10;;
36423;SDS011;22458;45.328;9.514;2022-12-18T16:47:08;27.40;;;16.92;;
36423;SDS011;22458;45.328;9.514;2022-12-18T16:49:34;28.05;;;16.33;;
36423;SDS011;22458;45.328;9.514;2022-12-18T16:52:00;25.38;;;16.77;;
36423;SDS011;22458;45.328;9.514;2022-12-18T16:54:25;25.30;;;16.30;;
36423;SDS011;22458;45.328;9.514;2022-12-18T16:56:54;26.77;;;17.60;;
36423;SDS011;22458;45.328;9.514;2022-12-18T16:59:20;26.67;;;15.80;;